Time;durP1;ratioP1;P1;durP2;ratioP2;P2;SDS_P1;SDS_P2;PMS_P1;PMS_P2;Temp;Humidity;BMP_temperature;BMP_pressure;BME280_temperature;BME280_humidity;BME280_pressure;Samples;Min_cycle;Max_cycle;Signal;HPM_P1;HPM_P2
2023/09/05 00:03:21;;;;;;;3.20;2.70;;;;;;;-145.48;100.00;64539.38;5970368;29;20062;-91
2023/09/05 00:07:16;;;;;;;3.70;2.53;;;;;;;-145.48;100.00;64539.38;5966369;29;20133;-90
2023/09/05 00:11:07;;;;;;;3.80;3.15;;;;;;;-145.48;100.00;64539.38;5980976;29;20490;-90
2023/09/05 00:15:34;;;;;;;4.35;2.53;;;;;;;-145.48;100.00;64539.38;5974354;29;20042;-90
2023/09/05 00:23:55;;;;;;;4.95;3.00;;;;;;;-145.48;100.00;64539.38;5967939;29;20042;-90
2023/09/05 00:31:52;;;;;;;4.45;2.85;;;;;;;-145.48;100.00;64539.38;5966067;29;20490;-90
2023/09/05 00:35:54;;;;;;;4.63;2.95;;;;;;;-145.48;100.00;64539.38;5981158;29;20042;-90
2023/09/05 00:43:44;;;;;;;4.90;3.13;;;;;;;-145.48;100.00;64539.38;5977214;29;20508;-90
2023/09/05 00:47:57;;;;;;;6.75;3.20;;;;;;;-145.48;100.00;64539.38;5979063;29;20066;-90
2023/09/05 00:56:24;;;;;;;4.82;2.70;;;;;;;-145.48;100.00;64539.38;5979948;29;20061;-90
2023/09/05 01:00:35;;;;;;;3.78;2.90;;;;;;;-145.48;100.00;64539.38;5976272;29;20291;-90
2023/09/05 01:04:46;;;;;;;3.53;2.65;;;;;;;-145.48;100.00;64539.38;5966839;29;20059;-90
2023/09/05 01:08:29;;;;;;;4.35;2.80;;;;;;;-145.48;100.00;64539.38;5985154;29;20121;-90
2023/09/05 01:12:34;;;;;;;6.07;2.90;;;;;;;-145.48;100.00;64539.38;5966535;29;20355;-90
2023/09/05 01:16:34;;;;;;;4.88;3.40;;;;;;;-145.48;100.00;64539.38;5982496;29;20042;-90
2023/09/05 01:24:17;;;;;;;4.63;3.08;;;;;;;-145.48;100.00;64539.38;5982218;29;20062;-90
2023/09/05 01:27:51;;;;;;;5.20;3.00;;;;;;;-145.48;100.00;64539.38;5991719;29;20096;-90
2023/09/05 01:31:34;;;;;;;3.70;2.88;;;;;;;-145.48;100.00;64539.38;5970892;29;20614;-90
2023/09/05 01:35:21;;;;;;;3.72;3.30;;;;;;;-145.48;100.00;64539.38;5983517;29;20042;-90
2023/09/05 01:39:40;;;;;;;4.18;2.92;;;;;;;-145.48;100.00;64539.38;5967474;29;20360;-90
2023/09/05 01:43:39;;;;;;;3.30;2.83;;;;;;;-145.48;100.00;64539.38;5974159;29;20154;-90
2023/09/05 01:59:21;;;;;;;6.43;3.08;;;;;;;-145.48;100.00;64539.38;5980949;29;20532;-90
2023/09/05 02:07:59;;;;;;;5.30;3.10;;;;;;;-145.48;100.00;64539.38;5980296;29;20073;-90
2023/09/05 02:11:56;;;;;;;3.80;2.70;;;;;;;-145.48;100.00;64539.38;5978295;29;20050;-90
2023/09/05 02:15:51;;;;;;;3.97;2.95;;;;;;;-145.48;100.00;64539.38;5974700;29;20050;-90
2023/09/05 02:19:38;;;;;;;3.97;2.90;;;;;;;-145.48;100.00;64539.38;5981329;29;20422;-90
2023/09/05 02:27:05;;;;;;;4.70;3.17;;;;;;;-145.48;100.00;64539.38;5981172;29;20725;-89
2023/09/05 02:31:25;;;;;;;3.45;2.80;;;;;;;-145.48;100.00;64539.38;5975560;29;20512;-90
2023/09/05 02:35:28;;;;;;;3.75;3.15;;;;;;;-145.48;100.00;64539.38;5984455;29;20038;-89
2023/09/05 02:48:25;;;;;;;4.53;3.30;;;;;;;-145.48;100.00;64539.38;5971602;29;20102;-90
2023/09/05 02:56:58;;;;;;;5.43;3.50;;;;;;;-145.48;100.00;64539.38;5974829;29;20039;-90
2023/09/05 03:01:11;;;;;;;3.83;2.85;;;;;;;-145.48;100.00;64539.38;5981021;29;20058;-90
2023/09/05 03:05:15;;;;;;;4.28;3.17;;;;;;;-145.48;100.00;64539.38;5982652;29;20489;-90
2023/09/05 03:09:39;;;;;;;3.75;3.30;;;;;;;-145.48;100.00;64539.38;5975954;29;20081;-89
2023/09/05 03:18:30;;;;;;;3.70;3.13;;;;;;;-145.48;100.00;64539.38;5993011;29;20080;-89
2023/09/05 03:22:51;;;;;;;3.92;3.15;;;;;;;-145.48;100.00;64539.38;5974080;29;20050;-90
2023/09/05 03:26:38;;;;;;;3.50;3.05;;;;;;;-145.48;100.00;64539.38;5968280;29;20145;-89
2023/09/05 03:30:29;;;;;;;5.25;3.38;;;;;;;-145.48;100.00;64539.38;5982250;29;20050;-90
2023/09/05 03:34:08;;;;;;;5.57;3.40;;;;;;;-145.48;100.00;64539.38;5983430;29;20054;-90
2023/09/05 03:37:57;;;;;;;3.38;3.03;;;;;;;-145.48;100.00;64539.38;5987094;29;20056;-90
2023/09/05 03:45:48;;;;;;;3.97;3.17;;;;;;;-145.48;100.00;64539.38;5979962;29;20626;-90
2023/09/05 03:58:00;;;;;;;5.38;3.13;;;;;;;-145.48;100.00;64539.38;5979904;29;20406;-90
2023/09/05 04:05:24;;;;;;;4.05;3.60;;;;;;;-145.48;100.00;64539.38;5987496;29;20376;-90
2023/09/05 04:08:26;;;;;;;3.95;3.33;;;;;;;-145.48;100.00;64539.38;5978628;29;20054;-90
2023/09/05 04:11:28;;;;;;;4.90;3.30;;;;;;;-145.48;100.00;64539.38;5979930;29;20050;-90
2023/09/05 04:14:32;;;;;;;5.35;3.00;;;;;;;-145.48;100.00;64539.38;5979662;29;20042;-89
2023/09/05 04:17:34;;;;;;;4.68;3.60;;;;;;;-145.48;100.00;64539.38;5981625;29;20542;-90
2023/09/05 04:20:37;;;;;;;6.15;3.53;;;;;;;-145.48;100.00;64539.38;5976458;29;20047;-90
2023/09/05 04:23:40;;;;;;;4.32;3.30;;;;;;;-145.48;100.00;64539.38;5981050;29;20078;-90
2023/09/05 04:26:45;;;;;;;5.05;3.58;;;;;;;-145.48;100.00;64539.38;5986604;29;20049;-90
2023/09/05 04:29:51;;;;;;;6.78;3.80;;;;;;;-145.48;100.00;64539.38;5976483;29;20140;-90
2023/09/05 04:32:53;;;;;;;5.13;3.42;;;;;;;-145.48;100.00;64539.38;5962427;29;20446;-90
2023/09/05 04:35:55;;;;;;;6.22;3.47;;;;;;;-145.48;100.00;64539.38;5976164;29;20061;-90
2023/09/05 04:38:57;;;;;;;5.82;3.70;;;;;;;-145.48;100.00;64539.38;5988143;29;20050;-90
2023/09/05 04:41:59;;;;;;;7.00;3.63;;;;;;;-145.48;100.00;64539.38;5987204;29;20406;-89
2023/09/05 04:45:01;;;;;;;5.68;3.45;;;;;;;-145.48;100.00;64539.38;5987149;29;20149;-90
2023/09/05 04:48:03;;;;;;;4.22;3.45;;;;;;;-145.48;100.00;64539.38;5987284;29;20047;-90
2023/09/05 04:51:05;;;;;;;5.35;3.60;;;;;;;-145.48;100.00;64539.38;5986994;29;20371;-90
2023/09/05 04:54:07;;;;;;;5.10;3.80;;;;;;;-145.48;100.00;64539.38;5987283;29;20043;-90
2023/09/05 04:57:10;;;;;;;4.25;3.30;;;;;;;-145.48;100.00;64539.38;5985617;29;20634;-89
2023/09/05 05:00:13;;;;;;;6.22;3.83;;;;;;;-145.48;100.00;64539.38;5986550;29;20379;-90
2023/09/05 05:03:15;;;;;;;5.13;3.70;;;;;;;-145.48;100.00;64539.38;5987870;29;20062;-89
2023/09/05 05:06:17;;;;;;;8.68;3.47;;;;;;;-145.48;100.00;64539.38;5987323;29;20046;-90
2023/09/05 05:09:19;;;;;;;5.68;3.40;;;;;;;-145.48;100.00;64539.38;5987671;29;20110;-90
2023/09/05 05:12:22;;;;;;;8.80;3.88;;;;;;;-145.48;100.00;64539.38;5982468;29;20413;-90
2023/09/05 05:15:23;;;;;;;5.05;3.30;;;;;;;-145.48;100.00;64539.38;5980537;29;20491;-89
2023/09/05 05:18:26;;;;;;;8.00;3.90;;;;;;;-145.48;100.00;64539.38;5979670;29;20050;-90
2023/09/05 05:21:28;;;;;;;7.60;3.35;;;;;;;-145.48;100.00;64539.38;5984532;29;20061;-89
2023/09/05 05:24:30;;;;;;;5.13;3.50;;;;;;;-145.48;100.00;64539.38;5985756;29;20053;-89
2023/09/05 05:27:32;;;;;;;7.32;3.50;;;;;;;-145.48;100.00;64539.38;5990264;29;20039;-89
2023/09/05 05:30:36;;;;;;;4.00;3.03;;;;;;;-145.48;100.00;64539.38;5977024;29;20077;-89
2023/09/05 05:33:38;;;;;;;4.22;2.75;;;;;;;-145.48;100.00;64539.38;5985860;29;20054;-89
2023/09/05 05:36:40;;;;;;;4.80;3.38;;;;;;;-145.48;100.00;64539.38;5987090;29;20049;-89
2023/09/05 05:39:42;;;;;;;3.55;3.17;;;;;;;-145.48;100.00;64539.38;5986839;29;20103;-89
2023/09/05 05:42:44;;;;;;;5.45;3.20;;;;;;;-145.48;100.00;64539.38;5984390;29;20047;-89
2023/09/05 05:45:49;;;;;;;4.65;3.05;;;;;;;-145.48;100.00;64539.38;5983202;29;20057;-89
2023/09/05 05:48:51;;;;;;;5.57;3.22;;;;;;;-145.48;100.00;64539.38;5983893;29;20501;-90
2023/09/05 05:51:55;;;;;;;5.63;3.00;;;;;;;-145.48;100.00;64539.38;5973812;29;20058;-90
2023/09/05 05:54:57;;;;;;;3.90;3.30;;;;;;;-145.48;100.00;64539.38;5983240;29;20046;-90
2023/09/05 05:58:00;;;;;;;3.70;2.83;;;;;;;-145.48;100.00;64539.38;5982077;29;20077;-89
2023/09/05 06:01:03;;;;;;;5.65;3.13;;;;;;;-145.48;100.00;64539.38;5983886;29;20051;-89
2023/09/05 06:04:05;;;;;;;5.20;3.00;;;;;;;-145.48;100.00;64539.38;5983322;29;20053;-89
2023/09/05 06:07:07;;;;;;;3.97;3.10;;;;;;;-145.48;100.00;64539.38;5983694;29;20151;-89
2023/09/05 06:10:09;;;;;;;6.75;3.40;;;;;;;-145.48;100.00;64539.38;5983215;29;20454;-90
2023/09/05 06:13:11;;;;;;;4.03;2.92;;;;;;;-145.48;100.00;64539.38;5982452;29;20069;-90
2023/09/05 06:16:13;;;;;;;3.63;2.60;;;;;;;-145.48;100.00;64539.38;5975180;29;20053;-90
2023/09/05 06:19:15;;;;;;;3.38;2.53;;;;;;;-145.48;100.00;64539.38;5980720;29;20046;-89
2023/09/05 06:22:17;;;;;;;5.18;2.70;;;;;;;-145.48;100.00;64539.38;5981433;29;20046;-89
2023/09/05 06:25:20;;;;;;;5.32;2.60;;;;;;;-145.48;100.00;64539.38;5983226;29;20067;-90
2023/09/05 06:28:24;;;;;;;3.60;2.78;;;;;;;-145.48;100.00;64539.38;5987177;29;20123;-90
2023/09/05 06:31:27;;;;;;;6.03;2.42;;;;;;;-145.48;100.00;64539.38;5982840;29;20050;-90
2023/09/05 06:34:29;;;;;;;3.78;2.78;;;;;;;-145.48;100.00;64539.38;5978816;29;20047;-90
2023/09/05 06:37:33;;;;;;;6.55;2.67;;;;;;;-145.48;100.00;64539.38;5983150;29;20129;-89
2023/09/05 06:40:37;;;;;;;3.90;2.53;;;;;;;-145.48;100.00;64539.38;5982780;29;20050;-89
2023/09/05 06:43:40;;;;;;;5.10;3.15;;;;;;;-145.48;100.00;64539.38;5971261;29;20053;-89
2023/09/05 06:46:42;;;;;;;3.80;2.58;;;;;;;-145.48;100.00;64539.38;5982383;29;20402;-89
2023/09/05 06:49:44;;;;;;;4.10;2.53;;;;;;;-145.48;100.00;64539.38;5982316;29;20531;-90
2023/09/05 06:52:48;;;;;;;4.70;2.40;;;;;;;-145.48;100.00;64539.38;5980377;29;20058;-90
2023/09/05 06:55:52;;;;;;;4.72;2.90;;;;;;;-145.48;100.00;64539.38;5980944;29;20077;-90
2023/09/05 06:58:54;;;;;;;2.55;2.10;;;;;;;-145.48;100.00;64539.38;5981655;29;20578;-90
2023/09/05 07:01:57;;;;;;;4.53;2.60;;;;;;;-145.48;100.00;64539.38;5982345;29;20042;-90
2023/09/05 07:05:00;;;;;;;3.85;2.20;;;;;;;-145.48;100.00;64539.38;5971002;29;20175;-90
2023/09/05 07:08:03;;;;;;;4.68;2.20;;;;;;;-145.48;100.00;64539.38;5982752;29;20061;-90
2023/09/05 07:11:05;;;;;;;3.45;2.40;;;;;;;-145.48;100.00;64539.38;5979017;29;20038;-89
2023/09/05 07:14:09;;;;;;;3.88;2.70;;;;;;;-145.48;100.00;64539.38;5978299;29;20056;-90
2023/09/05 07:17:11;;;;;;;4.40;2.28;;;;;;;-145.48;100.00;64539.38;5980920;29;20533;-90
2023/09/05 07:20:13;;;;;;;4.20;2.53;;;;;;;-145.48;100.00;64539.38;5981009;29;20061;-90
2023/09/05 07:23:15;;;;;;;4.60;2.70;;;;;;;-145.48;100.00;64539.38;5980624;29;20099;-90
2023/09/05 07:26:18;;;;;;;3.58;2.17;;;;;;;-145.48;100.00;64539.38;5977896;29;20406;-90
2023/09/05 07:29:20;;;;;;;4.25;2.35;;;;;;;-145.48;100.00;64539.38;5976043;29;20608;-90
2023/09/05 07:32:22;;;;;;;5.15;2.42;;;;;;;-145.48;100.00;64539.38;5978700;29;20125;-90
2023/09/05 07:35:25;;;;;;;3.28;2.20;;;;;;;-145.48;100.00;64539.38;5973798;29;20046;-90
2023/09/05 07:38:29;;;;;;;6.13;2.20;;;;;;;-145.48;100.00;64539.38;5981049;29;20053;-90
2023/09/05 07:41:32;;;;;;;3.90;2.28;;;;;;;-145.48;100.00;64539.38;5980819;29;20414;-90
2023/09/05 07:44:34;;;;;;;3.80;2.30;;;;;;;-145.48;100.00;64539.38;5973260;29;20121;-90
2023/09/05 07:47:36;;;;;;;3.03;2.20;;;;;;;-145.48;100.00;64539.38;5978923;29;20079;-90
2023/09/05 07:50:39;;;;;;;3.15;1.98;;;;;;;-145.48;100.00;64539.38;5980504;29;20074;-90
2023/09/05 07:53:49;;;;;;;2.88;1.90;;;;;;;-145.48;100.00;64539.38;5971745;29;20053;-90
2023/09/05 07:56:51;;;;;;;3.10;2.17;;;;;;;-145.48;100.00;64539.38;5975918;29;20524;-90
2023/09/05 07:59:53;;;;;;;6.20;2.15;;;;;;;-145.48;100.00;64539.38;5966761;29;20478;-90
2023/09/05 08:02:55;;;;;;;3.05;2.00;;;;;;;-145.48;100.00;64539.38;5969765;29;20080;-89
2023/09/05 08:05:58;;;;;;;3.28;2.05;;;;;;;-145.48;100.00;64539.38;5960882;29;20063;-90
2023/09/05 08:09:01;;;;;;;3.28;2.10;;;;;;;-145.48;100.00;64539.38;5978641;29;20414;-90
2023/09/05 08:12:03;;;;;;;2.90;1.85;;;;;;;-145.48;100.00;64539.38;5971711;29;20047;-89
2023/09/05 08:15:06;;;;;;;2.38;2.17;;;;;;;-145.48;100.00;64539.38;5979849;29;20081;-90
2023/09/05 08:18:08;;;;;;;3.60;2.33;;;;;;;-145.48;100.00;64539.38;5979285;29;20124;-89
2023/09/05 08:21:10;;;;;;;2.90;2.00;;;;;;;-145.48;100.00;64539.38;5978188;29;20057;-89
2023/09/05 08:24:12;;;;;;;3.67;1.92;;;;;;;-145.48;100.00;64539.38;5968284;29;20047;-89
2023/09/05 08:27:14;;;;;;;4.95;1.98;;;;;;;-145.48;100.00;64539.38;5978669;29;20051;-89
2023/09/05 08:30:16;;;;;;;2.30;2.08;;;;;;;-145.48;100.00;64539.38;5986598;29;20458;-90
2023/09/05 08:33:19;;;;;;;2.85;2.05;;;;;;;-145.48;100.00;64539.38;5970313;29;20585;-90
2023/09/05 08:36:21;;;;;;;3.42;2.15;;;;;;;-145.48;100.00;64539.38;5969429;29;20490;-89
2023/09/05 08:39:23;;;;;;;3.35;1.85;;;;;;;-145.48;100.00;64539.38;5981325;29;20146;-89
2023/09/05 08:42:30;;;;;;;3.05;1.98;;;;;;;-145.48;100.00;64539.38;5977796;29;20493;-89
2023/09/05 08:45:36;;;;;;;2.38;2.17;;;;;;;-145.48;100.00;64539.38;5979561;29;20474;-90
2023/09/05 08:48:38;;;;;;;2.35;2.10;;;;;;;-145.48;100.00;64539.38;5969831;29;20058;-90
2023/09/05 08:52:00;;;;;;;4.97;2.35;;;;;;;-145.48;100.00;64539.38;5976497;29;20142;-90
2023/09/05 08:55:02;;;;;;;2.67;2.33;;;;;;;-145.48;100.00;64539.38;5966032;29;20133;-89
2023/09/05 08:58:06;;;;;;;2.55;1.90;;;;;;;-145.48;100.00;64539.38;5967722;29;20193;-89
2023/09/05 09:01:10;;;;;;;3.97;2.08;;;;;;;-145.48;100.00;64539.38;5977780;29;20099;-90
2023/09/05 09:04:13;;;;;;;2.10;1.90;;;;;;;-145.48;100.00;64539.38;5975545;29;20047;-89
2023/09/05 09:07:16;;;;;;;4.35;2.20;;;;;;;-145.48;100.00;64539.38;5968677;29;20414;-89
2023/09/05 09:10:21;;;;;;;3.30;2.10;;;;;;;-145.48;100.00;64539.38;5978511;29;20050;-89
2023/09/05 09:13:24;;;;;;;3.20;1.88;;;;;;;-145.48;100.00;64539.38;5974653;29;20777;-89
2023/09/05 09:16:27;;;;;;;2.45;1.70;;;;;;;-145.48;100.00;64539.38;5979571;29;20352;-89
2023/09/05 09:19:31;;;;;;;3.53;2.10;;;;;;;-145.48;100.00;64539.38;5980630;29;20187;-93
2023/09/05 09:22:33;;;;;;;3.08;2.40;;;;;;;-145.48;100.00;64539.38;5975566;29;20185;-90
2023/09/05 09:25:45;;;;;;;2.97;1.80;;;;;;;-145.48;100.00;64539.38;5969435;29;20054;-90
2023/09/05 09:28:48;;;;;;;2.33;2.00;;;;;;;-145.48;100.00;64539.38;5973868;29;20050;-90
2023/09/05 09:31:59;;;;;;;3.13;2.00;;;;;;;-145.48;100.00;64539.38;5982212;29;20374;-90
2023/09/05 09:35:06;;;;;;;2.25;2.00;;;;;;;-145.48;100.00;64539.38;5974969;29;20038;-89
2023/09/05 09:38:08;;;;;;;2.50;1.70;;;;;;;-145.48;100.00;64539.38;5979367;29;20051;-89
2023/09/05 09:41:12;;;;;;;4.43;2.20;;;;;;;-145.48;100.00;64539.38;5974286;29;20118;-89
2023/09/05 09:44:32;;;;;;;4.32;1.95;;;;;;;-145.48;100.00;64539.38;5982230;29;20050;-89
2023/09/05 09:47:36;;;;;;;5.20;2.10;;;;;;;-145.48;100.00;64539.38;5970411;29;20050;-89
2023/09/05 09:50:39;;;;;;;3.03;2.40;;;;;;;-145.48;100.00;64539.38;5965738;29;20359;-89
2023/09/05 09:53:46;;;;;;;5.07;2.20;;;;;;;-145.48;100.00;64539.38;5981053;29;20627;-89
2023/09/05 09:56:48;;;;;;;3.17;2.15;;;;;;;-145.48;100.00;64539.38;5971523;29;20446;-89
2023/09/05 09:59:58;;;;;;;3.40;2.03;;;;;;;-145.48;100.00;64539.38;5978384;29;20046;-89
2023/09/05 10:03:04;;;;;;;1.85;1.65;;;;;;;-145.48;100.00;64539.38;5973090;29;20562;-89
2023/09/05 10:06:07;;;;;;;3.05;2.22;;;;;;;-145.48;100.00;64539.38;5974202;29;20039;-89
2023/09/05 10:09:09;;;;;;;3.67;2.00;;;;;;;-145.48;100.00;64539.38;5982579;29;20081;-89
2023/09/05 10:12:13;;;;;;;2.72;2.00;;;;;;;-145.48;100.00;64539.38;5974000;29;20055;-90
2023/09/05 10:15:18;;;;;;;2.75;2.00;;;;;;;-145.48;100.00;64539.38;5976616;29;20058;-90
2023/09/05 10:18:22;;;;;;;2.58;2.00;;;;;;;-145.48;100.00;64539.38;5979540;29;20043;-90
2023/09/05 10:21:25;;;;;;;2.88;1.92;;;;;;;-145.48;100.00;64539.38;5979421;29;20100;-90
2023/09/05 10:24:30;;;;;;;2.65;1.85;;;;;;;-145.48;100.00;64539.38;5972358;29;20106;-90
2023/09/05 10:27:32;;;;;;;3.65;1.92;;;;;;;-145.48;100.00;64539.38;5974015;29;20045;-90
2023/09/05 10:30:45;;;;;;;3.25;1.73;;;;;;;-145.48;100.00;64539.38;5966409;29;20810;-90
2023/09/05 10:33:47;;;;;;;2.17;1.75;;;;;;;-145.48;100.00;64539.38;5981322;29;20052;-90
2023/09/05 10:36:50;;;;;;;3.55;1.75;;;;;;;-145.48;100.00;64539.38;5975101;29;20478;-90
2023/09/05 10:39:57;;;;;;;3.50;1.80;;;;;;;-145.48;100.00;64539.38;5974503;29;20129;-90
2023/09/05 10:43:01;;;;;;;2.22;1.80;;;;;;;-145.48;100.00;64539.38;5968233;29;20058;-90
2023/09/05 10:46:03;;;;;;;1.85;1.63;;;;;;;-145.48;100.00;64539.38;5977459;29;20507;-90
2023/09/05 10:49:15;;;;;;;4.10;1.70;;;;;;;-145.48;100.00;64539.38;5965969;29;20051;-90
2023/09/05 10:52:21;;;;;;;2.13;1.80;;;;;;;-145.48;100.00;64539.38;5962848;29;20898;-91
2023/09/05 10:55:29;;;;;;;3.45;1.70;;;;;;;-145.48;100.00;64539.38;5960377;29;20043;-91
2023/09/05 10:59:00;;;;;;;3.53;1.70;;;;;;;-145.48;100.00;64539.38;5972705;29;20425;-90
2023/09/05 11:02:03;;;;;;;2.55;1.77;;;;;;;-145.48;100.00;64539.38;5971259;29;20043;-90
2023/09/05 11:05:26;;;;;;;2.13;1.70;;;;;;;-145.48;100.00;64539.38;5972318;29;20540;-90
2023/09/05 11:08:29;;;;;;;2.15;1.45;;;;;;;-145.48;100.00;64539.38;5976890;29;20046;-90
2023/09/05 11:11:37;;;;;;;3.55;1.70;;;;;;;-145.48;100.00;64539.38;5970967;29;20129;-90
2023/09/05 11:14:40;;;;;;;3.70;1.60;;;;;;;-145.48;100.00;64539.38;5981272;29;20057;-90
2023/09/05 11:17:42;;;;;;;2.40;1.80;;;;;;;-145.48;100.00;64539.38;5989505;29;20098;-90
2023/09/05 11:20:49;;;;;;;2.58;1.40;;;;;;;-145.48;100.00;64539.38;5972699;29;20051;-90
2023/09/05 11:23:52;;;;;;;5.38;1.65;;;;;;;-145.48;100.00;64539.38;5981662;29;20042;-90
2023/09/05 11:26:54;;;;;;;2.78;1.60;;;;;;;-145.48;100.00;64539.38;5978034;29;20047;-90
2023/09/05 11:30:04;;;;;;;3.60;1.60;;;;;;;-145.48;100.00;64539.38;5970296;29;20046;-90
2023/09/05 11:33:15;;;;;;;4.38;1.58;;;;;;;-145.48;100.00;64539.38;5964995;29;20059;-90
2023/09/05 11:36:17;;;;;;;3.70;1.50;;;;;;;-145.48;100.00;64539.38;5979453;29;20465;-89
2023/09/05 11:39:27;;;;;;;2.28;1.58;;;;;;;-145.48;100.00;64539.38;5980431;29;20054;-90
2023/09/05 11:42:34;;;;;;;1.73;1.48;;;;;;;-145.48;100.00;64539.38;5979734;29;20207;-89
2023/09/05 11:45:37;;;;;;;2.40;1.70;;;;;;;-145.48;100.00;64539.38;5979969;29;20134;-89
2023/09/05 11:48:43;;;;;;;4.80;1.80;;;;;;;-145.48;100.00;64539.38;5974670;29;20058;-89
2023/09/05 11:51:45;;;;;;;1.63;1.42;;;;;;;-145.48;100.00;64539.38;5975229;29;20050;-89
2023/09/05 11:54:49;;;;;;;2.10;1.52;;;;;;;-145.48;100.00;64539.38;5980886;29;20517;-89
2023/09/05 11:57:58;;;;;;;2.47;1.40;;;;;;;-145.48;100.00;64539.38;5980504;29;20042;-90
2023/09/05 12:01:01;;;;;;;4.10;1.52;;;;;;;-145.48;100.00;64539.38;5971251;29;20046;-90
2023/09/05 12:04:03;;;;;;;1.95;1.20;;;;;;;-145.48;100.00;64539.38;5979136;29;20546;-90
2023/09/05 12:07:08;;;;;;;2.45;1.40;;;;;;;-145.48;100.00;64539.38;5980249;29;20046;-90
2023/09/05 12:10:11;;;;;;;2.25;1.50;;;;;;;-145.48;100.00;64539.38;5986046;29;20046;-90
2023/09/05 12:13:13;;;;;;;1.40;1.30;;;;;;;-145.48;100.00;64539.38;5994241;29;20066;-89
2023/09/05 12:16:19;;;;;;;3.25;1.35;;;;;;;-145.48;100.00;64539.38;5979128;29;20061;-90
2023/09/05 12:19:27;;;;;;;2.33;1.58;;;;;;;-145.48;100.00;64539.38;5979203;29;20193;-90
2023/09/05 12:22:31;;;;;;;2.70;1.42;;;;;;;-145.48;100.00;64539.38;5977724;29;20571;-90
2023/09/05 12:25:33;;;;;;;1.40;1.30;;;;;;;-145.48;100.00;64539.38;5979683;29;20043;-90
2023/09/05 12:28:58;;;;;;;3.58;1.70;;;;;;;-145.48;100.00;64539.38;5977440;29;20045;-90
2023/09/05 12:32:00;;;;;;;4.47;1.40;;;;;;;-145.48;100.00;64539.38;5976422;29;20053;-90
2023/09/05 12:35:03;;;;;;;2.55;1.55;;;;;;;-145.48;100.00;64539.38;5980539;29;20050;-90
2023/09/05 12:38:07;;;;;;;1.50;1.40;;;;;;;-145.48;100.00;64539.38;5980289;29;20038;-89
2023/09/05 12:41:09;;;;;;;3.15;1.50;;;;;;;-145.48;100.00;64539.38;5977112;29;20078;-89
2023/09/05 12:44:11;;;;;;;2.65;1.30;;;;;;;-145.48;100.00;64539.38;5963324;29;20804;-90
2023/09/05 12:47:13;;;;;;;1.88;1.30;;;;;;;-145.48;100.00;64539.38;5963672;29;20051;-90
2023/09/05 12:50:16;;;;;;;3.00;1.33;;;;;;;-145.48;100.00;64539.38;5976660;29;20070;-90
2023/09/05 12:53:20;;;;;;;2.50;1.33;;;;;;;-145.48;100.00;64539.38;5974852;29;20433;-90
2023/09/05 12:56:23;;;;;;;2.10;1.20;;;;;;;-145.48;100.00;64539.38;5972319;29;20418;-90
2023/09/05 12:59:26;;;;;;;2.30;1.10;;;;;;;-145.48;100.00;64539.38;5972351;29;20069;-90
2023/09/05 13:02:28;;;;;;;1.70;1.10;;;;;;;-145.48;100.00;64539.38;5973429;29;20418;-90
2023/09/05 13:05:30;;;;;;;2.15;1.10;;;;;;;-145.48;100.00;64539.38;5971844;29;20047;-90
2023/09/05 13:08:32;;;;;;;3.13;1.20;;;;;;;-145.48;100.00;64539.38;5979168;29;20046;-90
2023/09/05 13:11:34;;;;;;;1.00;0.90;;;;;;;-145.48;100.00;64539.38;5978928;29;20054;-90
2023/09/05 13:14:36;;;;;;;1.23;0.88;;;;;;;-145.48;100.00;64539.38;5974208;29;20071;-90
2023/09/05 13:17:44;;;;;;;3.55;0.90;;;;;;;-145.48;100.00;64539.38;5960987;29;20039;-90
2023/09/05 13:20:47;;;;;;;1.83;0.93;;;;;;;-145.48;100.00;64539.38;5973481;29;20051;-89
2023/09/05 13:23:49;;;;;;;2.15;0.90;;;;;;;-145.48;100.00;64539.38;5970436;29;20188;-90
2023/09/05 13:26:54;;;;;;;1.50;0.93;;;;;;;-145.48;100.00;64539.38;5993543;29;20046;-90
2023/09/05 13:29:55;;;;;;;0.95;0.70;;;;;;;-145.48;100.00;64539.38;5973237;29;20038;-90
2023/09/05 13:32:58;;;;;;;2.08;0.70;;;;;;;-145.48;100.00;64539.38;5981975;29;20151;-89
2023/09/05 13:36:00;;;;;;;1.33;0.60;;;;;;;-145.48;100.00;64539.38;5978330;29;20051;-90
2023/09/05 13:39:02;;;;;;;1.45;0.95;;;;;;;-145.48;100.00;64539.38;5973531;29;20094;-90
2023/09/05 13:42:04;;;;;;;1.83;0.98;;;;;;;-145.48;100.00;64539.38;5980313;29;20042;-90
2023/09/05 13:45:06;;;;;;;0.95;0.70;;;;;;;-145.48;100.00;64539.38;5969640;29;20042;-90
2023/09/05 13:48:09;;;;;;;1.52;0.73;;;;;;;-145.48;100.00;64539.38;5977371;29;20586;-90
2023/09/05 13:51:11;;;;;;;1.17;0.63;;;;;;;-145.48;100.00;64539.38;5971923;29;20520;-90
2023/09/05 13:54:13;;;;;;;1.10;0.70;;;;;;;-145.48;100.00;64539.38;5974883;29;20399;-90
2023/09/05 13:57:15;;;;;;;1.13;1.02;;;;;;;-145.48;100.00;64539.38;5971980;29;20074;-90
2023/09/05 14:00:25;;;;;;;1.55;0.98;;;;;;;-145.48;100.00;64539.38;5979828;29;20050;-90
2023/09/05 14:03:27;;;;;;;1.05;0.80;;;;;;;-145.48;100.00;64539.38;5966247;29;20043;-90
2023/09/05 14:06:29;;;;;;;0.82;0.70;;;;;;;-145.48;100.00;64539.38;5978166;29;20129;-90
2023/09/05 14:09:31;;;;;;;0.82;0.50;;;;;;;-145.48;100.00;64539.38;5982986;29;20042;-90
2023/09/05 14:12:33;;;;;;;0.95;0.65;;;;;;;-145.48;100.00;64539.38;5979349;29;20430;-90
2023/09/05 14:15:35;;;;;;;1.02;0.75;;;;;;;-145.48;100.00;64539.38;5980460;29;20046;-90
2023/09/05 14:18:38;;;;;;;1.60;0.85;;;;;;;-145.48;100.00;64539.38;5974465;29;20058;-90
2023/09/05 14:21:40;;;;;;;1.20;0.68;;;;;;;-145.48;100.00;64539.38;5972980;29;20041;-90
2023/09/05 14:24:44;;;;;;;1.25;0.80;;;;;;;-145.48;100.00;64539.38;5978017;29;20050;-90
2023/09/05 14:27:47;;;;;;;2.05;0.82;;;;;;;-145.48;100.00;64539.38;5976481;29;20050;-90
2023/09/05 14:30:50;;;;;;;2.45;1.00;;;;;;;-145.48;100.00;64539.38;5971210;29;20069;-90
2023/09/05 14:33:52;;;;;;;0.65;0.65;;;;;;;-145.48;100.00;64539.38;5975443;29;20073;-90
2023/09/05 14:36:54;;;;;;;0.80;0.70;;;;;;;-145.48;100.00;64539.38;5981518;29;20107;-90
2023/09/05 14:39:57;;;;;;;1.27;0.93;;;;;;;-145.48;100.00;64539.38;5972972;29;20053;-90
2023/09/05 14:42:59;;;;;;;3.28;0.93;;;;;;;-145.48;100.00;64539.38;5972425;29;20210;-90
2023/09/05 14:46:01;;;;;;;1.25;0.60;;;;;;;-145.48;100.00;64539.38;5976892;29;20035;-90
2023/09/05 14:49:04;;;;;;;0.93;0.57;;;;;;;-145.48;100.00;64539.38;5980412;29;20045;-90
2023/09/05 14:52:06;;;;;;;0.80;0.70;;;;;;;-145.48;100.00;64539.38;5972055;29;20047;-90
2023/09/05 14:55:10;;;;;;;1.63;0.88;;;;;;;-145.48;100.00;64539.38;5984359;29;20050;-90
2023/09/05 14:58:12;;;;;;;2.13;0.80;;;;;;;-145.48;100.00;64539.38;5977192;29;20053;-90
2023/09/05 15:01:14;;;;;;;0.82;0.77;;;;;;;-145.48;100.00;64539.38;5974520;29;20122;-91
2023/09/05 15:04:16;;;;;;;1.23;0.90;;;;;;;-145.48;100.00;64539.38;5968127;29;20039;-90
2023/09/05 15:07:18;;;;;;;2.03;0.75;;;;;;;-145.48;100.00;64539.38;5966326;29;20125;-90
2023/09/05 15:10:20;;;;;;;2.63;0.90;;;;;;;-145.48;100.00;64539.38;5972194;29;20512;-90
2023/09/05 15:13:23;;;;;;;1.58;1.10;;;;;;;-145.48;100.00;64539.38;5964276;29;20054;-91
2023/09/05 15:16:26;;;;;;;2.47;0.82;;;;;;;-145.48;100.00;64539.38;5979037;29;20623;-91
2023/09/05 15:19:28;;;;;;;2.17;1.08;;;;;;;-145.48;100.00;64539.38;5974739;29;20372;-90
2023/09/05 15:22:30;;;;;;;0.82;0.77;;;;;;;-145.48;100.00;64539.38;5976338;29;20070;-90
2023/09/05 15:25:32;;;;;;;1.10;0.90;;;;;;;-145.48;100.00;64539.38;5975565;29;20106;-91
2023/09/05 15:28:34;;;;;;;1.00;0.90;;;;;;;-145.48;100.00;64539.38;5970250;29;20039;-90
2023/09/05 15:31:36;;;;;;;1.35;0.90;;;;;;;-145.48;100.00;64539.38;5973189;29;20042;-90
2023/09/05 15:34:38;;;;;;;0.88;0.88;;;;;;;-145.48;100.00;64539.38;5974913;29;20195;-90
2023/09/05 15:37:40;;;;;;;0.95;0.88;;;;;;;-145.48;100.00;64539.38;5964033;29;20055;-90
2023/09/05 15:40:42;;;;;;;2.20;0.90;;;;;;;-145.48;100.00;64539.38;5969716;29;20276;-90
2023/09/05 15:43:43;;;;;;;1.20;0.80;;;;;;;-145.48;100.00;64539.38;5966377;29;20051;-90
2023/09/05 15:46:46;;;;;;;0.93;0.80;;;;;;;-145.48;100.00;64539.38;5975192;29;20046;-90
2023/09/05 15:49:48;;;;;;;1.80;0.90;;;;;;;-145.48;100.00;64539.38;5965904;29;20038;-90